sensor_id;sensor_type;location;lat;lon;timestamp;P1;durP1;ratioP1;P2;durP2;ratioP2
35496;SDS011;21609;49.298;6.844;2023-12-28T00:01:55;3.88;;;3.30;;
35496;SDS011;21609;49.298;6.844;2023-12-28T00:04:21;3.05;;;2.75;;
35496;SDS011;21609;49.298;6.844;2023-12-28T00:06:46;4.93;;;3.60;;
35496;SDS011;21609;49.298;6.844;2023-12-28T00:09:12;2.78;;;2.58;;
35496;SDS011;21609;49.298;6.844;2023-12-28T00:11:38;3.42;;;2.33;;
35496;SDS011;21609;49.298;6.844;2023-12-28T00:14:03;3.38;;;3.08;;
35496;SDS011;21609;49.298;6.844;2023-12-28T00:16:30;3.28;;;2.97;;
35496;SDS011;21609;49.298;6.844;2023-12-28T00:18:57;3.20;;;2.90;;
35496;SDS011;21609;49.298;6.844;2023-12-28T00:21:23;4.63;;;3.25;;
35496;SDS011;21609;49.298;6.844;2023-12-28T00:23:48;3.75;;;3.35;;
35496;SDS011;21609;49.298;6.844;2023-12-28T00:26:14;3.95;;;3.55;;
35496;SDS011;21609;49.298;6.844;2023-12-28T00:28:41;3.92;;;3.55;;
35496;SDS011;21609;49.298;6.844;2023-12-28T00:31:07;4.43;;;3.65;;
35496;SDS011;21609;49.298;6.844;2023-12-28T00:33:34;3.13;;;2.70;;
35496;SDS011;21609;49.298;6.844;2023-12-28T00:36:00;3.58;;;3.20;;
35496;SDS011;21609;49.298;6.844;2023-12-28T00:38:25;3.17;;;2.88;;
35496;SDS011;21609;49.298;6.844;2023-12-28T00:40:51;4.15;;;3.10;;
35496;SDS011;21609;49.298;6.844;2023-12-28T00:43:16;3.83;;;3.17;;
35496;SDS011;21609;49.298;6.844;2023-12-28T00:45:42;3.50;;;3.20;;
35496;SDS011;21609;49.298;6.844;2023-12-28T00:48:07;3.63;;;3.28;;
35496;SDS011;21609;49.298;6.844;2023-12-28T00:50:33;3.53;;;3.22;;
35496;SDS011;21609;49.298;6.844;2023-12-28T00:52:59;3.22;;;2.92;;
35496;SDS011;21609;49.298;6.844;2023-12-28T00:55:24;3.30;;;3.00;;
35496;SDS011;21609;49.298;6.844;2023-12-28T00:57:50;3.45;;;3.10;;
35496;SDS011;21609;49.298;6.844;2023-12-28T01:00:16;3.08;;;2.88;;
35496;SDS011;21609;49.298;6.844;2023-12-28T01:02:41;4.40;;;2.92;;
35496;SDS011;21609;49.298;6.844;2023-12-28T01:05:07;3.83;;;3.38;;
35496;SDS011;21609;49.298;6.844;2023-12-28T01:07:33;3.38;;;3.08;;
35496;SDS011;21609;49.298;6.844;2023-12-28T01:09:58;3.20;;;2.90;;
35496;SDS011;21609;49.298;6.844;2023-12-28T01:12:24;3.08;;;2.75;;
35496;SDS011;21609;49.298;6.844;2023-12-28T01:14:51;3.45;;;2.47;;
35496;SDS011;21609;49.298;6.844;2023-12-28T01:17:16;7.75;;;3.17;;
35496;SDS011;21609;49.298;6.844;2023-12-28T01:19:43;3.40;;;3.10;;
35496;SDS011;21609;49.298;6.844;2023-12-28T01:22:08;3.75;;;3.30;;
35496;SDS011;21609;49.298;6.844;2023-12-28T01:24:34;3.22;;;2.92;;
35496;SDS011;21609;49.298;6.844;2023-12-28T01:26:59;3.28;;;2.97;;
35496;SDS011;21609;49.298;6.844;2023-12-28T01:29:25;3.28;;;2.97;;
35496;SDS011;21609;49.298;6.844;2023-12-28T01:31:50;2.85;;;2.55;;
35496;SDS011;21609;49.298;6.844;2023-12-28T01:34:16;4.10;;;2.67;;
35496;SDS011;21609;49.298;6.844;2023-12-28T01:36:41;3.20;;;2.90;;
35496;SDS011;21609;49.298;6.844;2023-12-28T01:39:09;2.92;;;2.72;;
35496;SDS011;21609;49.298;6.844;2023-12-28T01:41:36;3.13;;;2.83;;
35496;SDS011;21609;49.298;6.844;2023-12-28T01:44:01;3.03;;;2.72;;
35496;SDS011;21609;49.298;6.844;2023-12-28T01:46:27;2.50;;;2.30;;
35496;SDS011;21609;49.298;6.844;2023-12-28T01:48:53;3.58;;;3.20;;
35496;SDS011;21609;49.298;6.844;2023-12-28T01:51:19;3.03;;;2.72;;
35496;SDS011;21609;49.298;6.844;2023-12-28T01:53:45;4.00;;;2.92;;
35496;SDS011;21609;49.298;6.844;2023-12-28T01:56:12;3.05;;;2.75;;
35496;SDS011;21609;49.298;6.844;2023-12-28T01:58:38;3.67;;;2.88;;
35496;SDS011;21609;49.298;6.844;2023-12-28T02:01:06;3.58;;;2.67;;
35496;SDS011;21609;49.298;6.844;2023-12-28T02:03:32;3.65;;;3.03;;
35496;SDS011;21609;49.298;6.844;2023-12-28T02:05:58;3.00;;;2.65;;
35496;SDS011;21609;49.298;6.844;2023-12-28T02:08:25;3.72;;;2.78;;
35496;SDS011;21609;49.298;6.844;2023-12-28T02:10:51;3.08;;;2.53;;
35496;SDS011;21609;49.298;6.844;2023-12-28T02:13:16;2.90;;;2.60;;
35496;SDS011;21609;49.298;6.844;2023-12-28T02:15:42;3.15;;;2.63;;
35496;SDS011;21609;49.298;6.844;2023-12-28T02:18:12;2.70;;;2.47;;
35496;SDS011;21609;49.298;6.844;2023-12-28T02:20:42;3.75;;;3.05;;
35496;SDS011;21609;49.298;6.844;2023-12-28T02:23:09;2.58;;;2.33;;
35496;SDS011;21609;49.298;6.844;2023-12-28T02:25:35;3.08;;;2.75;;
35496;SDS011;21609;49.298;6.844;2023-12-28T02:28:01;2.40;;;2.20;;
35496;SDS011;21609;49.298;6.844;2023-12-28T02:30:27;3.30;;;3.00;;
35496;SDS011;21609;49.298;6.844;2023-12-28T02:35:48;3.78;;;2.92;;
35496;SDS011;21609;49.298;6.844;2023-12-28T02:38:36;2.60;;;2.35;;
35496;SDS011;21609;49.298;6.844;2023-12-28T02:41:03;2.88;;;2.63;;
35496;SDS011;21609;49.298;6.844;2023-12-28T02:43:29;4.00;;;2.75;;
35496;SDS011;21609;49.298;6.844;2023-12-28T02:45:58;3.40;;;2.97;;
35496;SDS011;21609;49.298;6.844;2023-12-28T02:48:23;3.03;;;2.75;;
35496;SDS011;21609;49.298;6.844;2023-12-28T02:50:50;2.53;;;2.33;;
35496;SDS011;21609;49.298;6.844;2023-12-28T02:53:16;3.40;;;2.65;;
35496;SDS011;21609;49.298;6.844;2023-12-28T02:55:42;3.30;;;2.67;;
35496;SDS011;21609;49.298;6.844;2023-12-28T02:58:07;4.70;;;2.97;;
35496;SDS011;21609;49.298;6.844;2023-12-28T03:00:33;3.65;;;2.78;;
35496;SDS011;21609;49.298;6.844;2023-12-28T03:02:58;2.33;;;2.13;;
35496;SDS011;21609;49.298;6.844;2023-12-28T03:05:24;2.95;;;2.67;;
35496;SDS011;21609;49.298;6.844;2023-12-28T03:07:49;2.25;;;1.70;;
35496;SDS011;21609;49.298;6.844;2023-12-28T03:10:15;2.80;;;2.42;;
35496;SDS011;21609;49.298;6.844;2023-12-28T03:12:40;3.40;;;2.70;;
35496;SDS011;21609;49.298;6.844;2023-12-28T03:15:06;2.65;;;2.40;;
35496;SDS011;21609;49.298;6.844;2023-12-28T03:20:06;2.17;;;1.95;;
35496;SDS011;21609;49.298;6.844;2023-12-28T03:22:32;2.70;;;2.45;;
35496;SDS011;21609;49.298;6.844;2023-12-28T03:24:57;2.97;;;2.67;;
35496;SDS011;21609;49.298;6.844;2023-12-28T03:27:23;2.63;;;2.40;;
35496;SDS011;21609;49.298;6.844;2023-12-28T03:29:48;2.60;;;2.40;;
35496;SDS011;21609;49.298;6.844;2023-12-28T03:32:14;3.45;;;2.72;;
35496;SDS011;21609;49.298;6.844;2023-12-28T03:34:40;2.70;;;2.47;;
35496;SDS011;21609;49.298;6.844;2023-12-28T03:37:06;2.88;;;2.30;;
35496;SDS011;21609;49.298;6.844;2023-12-28T03:39:31;2.63;;;2.42;;
35496;SDS011;21609;49.298;6.844;2023-12-28T03:41:58;3.13;;;2.45;;
35496;SDS011;21609;49.298;6.844;2023-12-28T03:44:23;2.45;;;2.25;;
35496;SDS011;21609;49.298;6.844;2023-12-28T03:46:49;2.85;;;2.65;;
35496;SDS011;21609;49.298;6.844;2023-12-28T03:49:17;3.47;;;2.63;;
35496;SDS011;21609;49.298;6.844;2023-12-28T03:51:43;3.28;;;2.90;;
35496;SDS011;21609;49.298;6.844;2023-12-28T03:54:09;2.60;;;2.40;;
35496;SDS011;21609;49.298;6.844;2023-12-28T03:56:34;2.92;;;2.63;;
35496;SDS011;21609;49.298;6.844;2023-12-28T03:59:00;2.42;;;2.22;;
35496;SDS011;21609;49.298;6.844;2023-12-28T04:01:26;2.72;;;2.40;;
35496;SDS011;21609;49.298;6.844;2023-12-28T04:03:52;2.35;;;2.15;;
35496;SDS011;21609;49.298;6.844;2023-12-28T04:06:17;2.17;;;1.98;;
35496;SDS011;21609;49.298;6.844;2023-12-28T04:08:43;2.25;;;2.05;;
35496;SDS011;21609;49.298;6.844;2023-12-28T04:11:09;2.40;;;2.20;;
35496;SDS011;21609;49.298;6.844;2023-12-28T04:13:35;2.53;;;1.98;;
35496;SDS011;21609;49.298;6.844;2023-12-28T04:16:01;2.58;;;2.30;;
35496;SDS011;21609;49.298;6.844;2023-12-28T04:18:27;3.00;;;2.67;;
35496;SDS011;21609;49.298;6.844;2023-12-28T04:20:52;2.92;;;2.70;;
35496;SDS011;21609;49.298;6.844;2023-12-28T04:23:18;3.00;;;2.70;;
35496;SDS011;21609;49.298;6.844;2023-12-28T04:25:43;2.47;;;2.28;;
35496;SDS011;21609;49.298;6.844;2023-12-28T04:28:09;3.30;;;3.00;;
35496;SDS011;21609;49.298;6.844;2023-12-28T04:30:35;2.85;;;2.03;;
35496;SDS011;21609;49.298;6.844;2023-12-28T04:33:01;2.38;;;2.17;;
35496;SDS011;21609;49.298;6.844;2023-12-28T04:35:27;2.58;;;2.30;;
35496;SDS011;21609;49.298;6.844;2023-12-28T04:37:52;2.58;;;2.38;;
35496;SDS011;21609;49.298;6.844;2023-12-28T04:40:18;2.28;;;2.08;;
35496;SDS011;21609;49.298;6.844;2023-12-28T04:42:43;2.70;;;2.33;;
35496;SDS011;21609;49.298;6.844;2023-12-28T04:45:09;2.00;;;1.90;;
35496;SDS011;21609;49.298;6.844;2023-12-28T04:47:37;2.05;;;1.90;;
35496;SDS011;21609;49.298;6.844;2023-12-28T04:50:03;2.50;;;2.30;;
35496;SDS011;21609;49.298;6.844;2023-12-28T04:52:30;1.70;;;1.60;;
35496;SDS011;21609;49.298;6.844;2023-12-28T04:54:56;2.30;;;2.10;;
35496;SDS011;21609;49.298;6.844;2023-12-28T04:57:21;2.90;;;2.63;;
35496;SDS011;21609;49.298;6.844;2023-12-28T04:59:49;3.13;;;2.25;;
35496;SDS011;21609;49.298;6.844;2023-12-28T05:02:15;2.63;;;2.40;;
35496;SDS011;21609;49.298;6.844;2023-12-28T05:04:41;2.03;;;1.75;;
35496;SDS011;21609;49.298;6.844;2023-12-28T05:07:06;3.50;;;2.25;;
35496;SDS011;21609;49.298;6.844;2023-12-28T05:09:32;2.03;;;1.83;;
35496;SDS011;21609;49.298;6.844;2023-12-28T05:11:57;2.30;;;2.00;;
35496;SDS011;21609;49.298;6.844;2023-12-28T05:14:23;2.90;;;2.22;;
35496;SDS011;21609;49.298;6.844;2023-12-28T05:16:49;3.28;;;2.15;;
35496;SDS011;21609;49.298;6.844;2023-12-28T05:19:15;2.50;;;2.30;;
35496;SDS011;21609;49.298;6.844;2023-12-28T05:21:40;2.67;;;2.40;;
35496;SDS011;21609;49.298;6.844;2023-12-28T05:24:06;2.20;;;2.00;;
35496;SDS011;21609;49.298;6.844;2023-12-28T05:26:31;2.97;;;2.30;;
35496;SDS011;21609;49.298;6.844;2023-12-28T05:28:57;2.03;;;1.83;;
35496;SDS011;21609;49.298;6.844;2023-12-28T05:31:23;2.00;;;1.70;;
35496;SDS011;21609;49.298;6.844;2023-12-28T05:33:48;2.45;;;2.22;;
35496;SDS011;21609;49.298;6.844;2023-12-28T05:36:14;4.18;;;2.70;;
35496;SDS011;21609;49.298;6.844;2023-12-28T05:38:39;2.85;;;1.95;;
35496;SDS011;21609;49.298;6.844;2023-12-28T05:41:05;2.72;;;2.38;;
35496;SDS011;21609;49.298;6.844;2023-12-28T05:43:30;2.20;;;2.00;;
35496;SDS011;21609;49.298;6.844;2023-12-28T05:45:56;6.20;;;2.63;;
35496;SDS011;21609;49.298;6.844;2023-12-28T05:48:21;4.32;;;2.72;;
35496;SDS011;21609;49.298;6.844;2023-12-28T05:50:47;2.83;;;2.63;;
35496;SDS011;21609;49.298;6.844;2023-12-28T05:53:12;2.83;;;1.92;;
35496;SDS011;21609;49.298;6.844;2023-12-28T05:55:42;3.45;;;2.80;;
35496;SDS011;21609;49.298;6.844;2023-12-28T05:58:08;2.05;;;1.80;;
35496;SDS011;21609;49.298;6.844;2023-12-28T06:00:34;10.07;;;3.03;;
35496;SDS011;21609;49.298;6.844;2023-12-28T06:03:01;3.03;;;2.38;;
35496;SDS011;21609;49.298;6.844;2023-12-28T06:05:27;3.75;;;1.98;;
35496;SDS011;21609;49.298;6.844;2023-12-28T06:07:53;2.47;;;2.25;;
35496;SDS011;21609;49.298;6.844;2023-12-28T06:10:19;2.13;;;1.98;;
35496;SDS011;21609;49.298;6.844;2023-12-28T06:12:45;1.65;;;1.55;;
35496;SDS011;21609;49.298;6.844;2023-12-28T06:15:10;3.15;;;2.10;;
35496;SDS011;21609;49.298;6.844;2023-12-28T06:17:36;3.45;;;2.10;;
35496;SDS011;21609;49.298;6.844;2023-12-28T06:20:01;2.88;;;2.42;;
35496;SDS011;21609;49.298;6.844;2023-12-28T06:22:27;2.22;;;2.00;;
35496;SDS011;21609;49.298;6.844;2023-12-28T06:24:53;2.10;;;1.90;;
35496;SDS011;21609;49.298;6.844;2023-12-28T06:27:20;2.83;;;2.35;;
35496;SDS011;21609;49.298;6.844;2023-12-28T06:29:45;3.05;;;2.22;;
35496;SDS011;21609;49.298;6.844;2023-12-28T06:32:11;3.83;;;2.42;;
35496;SDS011;21609;49.298;6.844;2023-12-28T06:34:37;2.97;;;2.42;;
35496;SDS011;21609;49.298;6.844;2023-12-28T06:37:02;3.55;;;2.63;;
35496;SDS011;21609;49.298;6.844;2023-12-28T06:39:28;4.70;;;2.55;;
35496;SDS011;21609;49.298;6.844;2023-12-28T06:41:54;3.17;;;2.42;;
35496;SDS011;21609;49.298;6.844;2023-12-28T06:44:19;2.83;;;2.42;;
35496;SDS011;21609;49.298;6.844;2023-12-28T06:46:45;2.55;;;2.33;;
35496;SDS011;21609;49.298;6.844;2023-12-28T06:49:10;1.80;;;1.70;;
35496;SDS011;21609;49.298;6.844;2023-12-28T06:51:36;2.47;;;2.22;;
35496;SDS011;21609;49.298;6.844;2023-12-28T06:54:02;4.75;;;2.20;;
35496;SDS011;21609;49.298;6.844;2023-12-28T06:56:27;2.67;;;2.10;;
35496;SDS011;21609;49.298;6.844;2023-12-28T06:58:53;6.28;;;2.13;;
35496;SDS011;21609;49.298;6.844;2023-12-28T07:01:19;2.08;;;1.88;;
35496;SDS011;21609;49.298;6.844;2023-12-28T07:03:44;3.85;;;2.50;;
35496;SDS011;21609;49.298;6.844;2023-12-28T07:06:10;5.22;;;2.40;;
35496;SDS011;21609;49.298;6.844;2023-12-28T07:08:35;4.53;;;1.65;;
35496;SDS011;21609;49.298;6.844;2023-12-28T07:11:01;3.53;;;1.88;;
35496;SDS011;21609;49.298;6.844;2023-12-28T07:13:27;6.25;;;1.95;;
35496;SDS011;21609;49.298;6.844;2023-12-28T07:15:52;2.00;;;1.75;;
35496;SDS011;21609;49.298;6.844;2023-12-28T07:18:18;2.38;;;2.05;;
35496;SDS011;21609;49.298;6.844;2023-12-28T07:20:44;2.28;;;1.83;;
35496;SDS011;21609;49.298;6.844;2023-12-28T07:23:09;3.05;;;1.92;;
35496;SDS011;21609;49.298;6.844;2023-12-28T07:25:35;3.47;;;2.25;;
35496;SDS011;21609;49.298;6.844;2023-12-28T07:28:01;4.60;;;2.05;;
35496;SDS011;21609;49.298;6.844;2023-12-28T07:30:27;2.83;;;2.15;;
35496;SDS011;21609;49.298;6.844;2023-12-28T07:32:54;2.85;;;2.45;;
35496;SDS011;21609;49.298;6.844;2023-12-28T07:35:20;2.15;;;1.88;;
35496;SDS011;21609;49.298;6.844;2023-12-28T07:37:45;1.75;;;1.48;;
35496;SDS011;21609;49.298;6.844;2023-12-28T07:40:11;1.60;;;1.50;;
35496;SDS011;21609;49.298;6.844;2023-12-28T07:42:38;2.38;;;1.80;;
35496;SDS011;21609;49.298;6.844;2023-12-28T07:45:04;1.92;;;1.58;;
35496;SDS011;21609;49.298;6.844;2023-12-28T07:47:30;3.92;;;2.20;;
35496;SDS011;21609;49.298;6.844;2023-12-28T07:49:55;2.13;;;1.70;;
35496;SDS011;21609;49.298;6.844;2023-12-28T07:52:21;2.20;;;1.85;;
35496;SDS011;21609;49.298;6.844;2023-12-28T07:54:47;3.80;;;1.60;;
35496;SDS011;21609;49.298;6.844;2023-12-28T07:57:12;1.55;;;1.45;;
35496;SDS011;21609;49.298;6.844;2023-12-28T07:59:38;1.83;;;1.73;;
35496;SDS011;21609;49.298;6.844;2023-12-28T08:02:03;2.25;;;1.42;;
35496;SDS011;21609;49.298;6.844;2023-12-28T08:04:29;3.03;;;1.98;;
35496;SDS011;21609;49.298;6.844;2023-12-28T08:06:54;2.65;;;1.67;;
35496;SDS011;21609;49.298;6.844;2023-12-28T08:09:20;3.90;;;1.17;;
35496;SDS011;21609;49.298;6.844;2023-12-28T08:11:45;2.30;;;1.70;;
35496;SDS011;21609;49.298;6.844;2023-12-28T08:14:11;2.20;;;1.65;;
35496;SDS011;21609;49.298;6.844;2023-12-28T08:16:37;2.97;;;1.77;;
35496;SDS011;21609;49.298;6.844;2023-12-28T08:19:02;1.30;;;1.20;;
35496;SDS011;21609;49.298;6.844;2023-12-28T08:21:28;4.03;;;1.50;;
35496;SDS011;21609;49.298;6.844;2023-12-28T08:23:54;2.88;;;0.90;;
35496;SDS011;21609;49.298;6.844;2023-12-28T08:26:19;2.45;;;1.73;;
35496;SDS011;21609;49.298;6.844;2023-12-28T08:28:45;1.23;;;1.10;;
35496;SDS011;21609;49.298;6.844;2023-12-28T08:31:10;2.83;;;1.73;;
35496;SDS011;21609;49.298;6.844;2023-12-28T08:33:37;1.50;;;1.40;;
35496;SDS011;21609;49.298;6.844;2023-12-28T08:36:06;1.67;;;1.10;;
35496;SDS011;21609;49.298;6.844;2023-12-28T08:38:32;2.50;;;1.83;;
35496;SDS011;21609;49.298;6.844;2023-12-28T08:40:58;2.05;;;1.20;;
35496;SDS011;21609;49.298;6.844;2023-12-28T08:43:23;1.98;;;1.17;;
35496;SDS011;21609;49.298;6.844;2023-12-28T08:45:49;1.55;;;1.33;;
35496;SDS011;21609;49.298;6.844;2023-12-28T08:48:14;1.13;;;1.02;;
35496;SDS011;21609;49.298;6.844;2023-12-28T08:50:40;1.48;;;1.30;;
35496;SDS011;21609;49.298;6.844;2023-12-28T08:53:06;1.70;;;1.58;;
35496;SDS011;21609;49.298;6.844;2023-12-28T08:55:31;1.50;;;1.10;;
35496;SDS011;21609;49.298;6.844;2023-12-28T08:57:58;1.25;;;1.15;;
35496;SDS011;21609;49.298;6.844;2023-12-28T09:00:24;2.50;;;1.20;;
35496;SDS011;21609;49.298;6.844;2023-12-28T09:02:50;1.73;;;1.40;;
35496;SDS011;21609;49.298;6.844;2023-12-28T09:05:16;2.00;;;1.30;;
35496;SDS011;21609;49.298;6.844;2023-12-28T09:07:42;1.98;;;1.45;;
35496;SDS011;21609;49.298;6.844;2023-12-28T09:10:11;2.70;;;1.20;;
35496;SDS011;21609;49.298;6.844;2023-12-28T09:12:37;1.75;;;1.65;;
35496;SDS011;21609;49.298;6.844;2023-12-28T09:15:06;3.05;;;1.30;;
35496;SDS011;21609;49.298;6.844;2023-12-28T09:17:32;1.15;;;1.05;;
35496;SDS011;21609;49.298;6.844;2023-12-28T09:19:58;1.55;;;1.08;;
35496;SDS011;21609;49.298;6.844;2023-12-28T09:22:24;1.33;;;1.08;;
35496;SDS011;21609;49.298;6.844;2023-12-28T09:24:50;2.30;;;1.08;;
35496;SDS011;21609;49.298;6.844;2023-12-28T09:27:16;1.73;;;1.27;;
35496;SDS011;21609;49.298;6.844;2023-12-28T09:29:41;1.83;;;1.20;;
35496;SDS011;21609;49.298;6.844;2023-12-28T09:32:07;1.20;;;1.10;;
35496;SDS011;21609;49.298;6.844;2023-12-28T09:34:33;1.38;;;1.27;;
35496;SDS011;21609;49.298;6.844;2023-12-28T09:36:58;1.98;;;1.17;;
35496;SDS011;21609;49.298;6.844;2023-12-28T09:39:24;12.65;;;1.40;;
35496;SDS011;21609;49.298;6.844;2023-12-28T09:41:54;1.63;;;1.23;;
35496;SDS011;21609;49.298;6.844;2023-12-28T09:44:24;1.33;;;1.23;;
35496;SDS011;21609;49.298;6.844;2023-12-28T09:46:50;1.10;;;1.00;;
35496;SDS011;21609;49.298;6.844;2023-12-28T09:49:18;1.40;;;1.27;;
35496;SDS011;21609;49.298;6.844;2023-12-28T09:51:46;1.23;;;1.13;;
35496;SDS011;21609;49.298;6.844;2023-12-28T09:54:12;1.20;;;1.10;;
35496;SDS011;21609;49.298;6.844;2023-12-28T09:56:38;3.20;;;1.05;;
35496;SDS011;21609;49.298;6.844;2023-12-28T09:59:05;2.45;;;1.08;;
35496;SDS011;21609;49.298;6.844;2023-12-28T10:01:32;4.38;;;1.98;;
35496;SDS011;21609;49.298;6.844;2023-12-28T10:04:01;1.13;;;1.02;;
35496;SDS011;21609;49.298;6.844;2023-12-28T10:06:30;1.15;;;1.10;;
35496;SDS011;21609;49.298;6.844;2023-12-28T10:08:55;1.40;;;1.30;;
35496;SDS011;21609;49.298;6.844;2023-12-28T10:11:21;1.52;;;1.40;;
35496;SDS011;21609;49.298;6.844;2023-12-28T10:13:48;1.55;;;1.35;;
35496;SDS011;21609;49.298;6.844;2023-12-28T10:16:14;2.30;;;1.25;;
35496;SDS011;21609;49.298;6.844;2023-12-28T10:18:41;1.35;;;1.25;;
35496;SDS011;21609;49.298;6.844;2023-12-28T10:21:10;1.70;;;1.60;;
35496;SDS011;21609;49.298;6.844;2023-12-28T10:23:38;2.63;;;1.33;;
35496;SDS011;21609;49.298;6.844;2023-12-28T10:26:04;1.50;;;1.15;;
35496;SDS011;21609;49.298;6.844;2023-12-28T10:28:31;2.90;;;1.27;;
35496;SDS011;21609;49.298;6.844;2023-12-28T10:30:58;2.90;;;1.52;;
35496;SDS011;21609;49.298;6.844;2023-12-28T10:33:23;1.35;;;1.25;;
35496;SDS011;21609;49.298;6.844;2023-12-28T10:35:52;1.20;;;1.10;;
35496;SDS011;21609;49.298;6.844;2023-12-28T10:38:22;1.95;;;1.10;;
35496;SDS011;21609;49.298;6.844;2023-12-28T10:40:49;2.25;;;1.30;;
35496;SDS011;21609;49.298;6.844;2023-12-28T10:43:17;1.55;;;1.45;;
35496;SDS011;21609;49.298;6.844;2023-12-28T10:45:49;1.98;;;1.45;;
35496;SDS011;21609;49.298;6.844;2023-12-28T10:48:15;1.60;;;1.42;;
35496;SDS011;21609;49.298;6.844;2023-12-28T10:50:53;3.67;;;1.60;;
35496;SDS011;21609;49.298;6.844;2023-12-28T10:56:25;2.50;;;1.55;;
35496;SDS011;21609;49.298;6.844;2023-12-28T10:59:06;2.72;;;1.50;;
35496;SDS011;21609;49.298;6.844;2023-12-28T11:01:35;2.25;;;1.20;;
35496;SDS011;21609;49.298;6.844;2023-12-28T11:04:10;1.38;;;1.27;;
35496;SDS011;21609;49.298;6.844;2023-12-28T11:06:42;2.15;;;1.20;;
35496;SDS011;21609;49.298;6.844;2023-12-28T11:09:09;1.50;;;1.27;;
35496;SDS011;21609;49.298;6.844;2023-12-28T11:11:36;1.60;;;1.42;;
35496;SDS011;21609;49.298;6.844;2023-12-28T11:14:03;1.10;;;1.00;;
35496;SDS011;21609;49.298;6.844;2023-12-28T11:16:29;1.35;;;1.25;;
35496;SDS011;21609;49.298;6.844;2023-12-28T11:18:57;2.35;;;1.67;;
35496;SDS011;21609;49.298;6.844;2023-12-28T11:21:23;1.73;;;1.30;;
35496;SDS011;21609;49.298;6.844;2023-12-28T11:23:49;1.60;;;1.50;;
35496;SDS011;21609;49.298;6.844;2023-12-28T11:26:15;1.52;;;1.05;;
35496;SDS011;21609;49.298;6.844;2023-12-28T11:28:45;1.42;;;1.33;;
35496;SDS011;21609;49.298;6.844;2023-12-28T11:31:13;1.77;;;1.63;;
35496;SDS011;21609;49.298;6.844;2023-12-28T11:33:50;1.17;;;1.05;;
35496;SDS011;21609;49.298;6.844;2023-12-28T11:36:22;1.42;;;1.33;;
35496;SDS011;21609;49.298;6.844;2023-12-28T11:38:52;1.35;;;1.25;;
35496;SDS011;21609;49.298;6.844;2023-12-28T11:41:21;2.83;;;1.38;;
35496;SDS011;21609;49.298;6.844;2023-12-28T11:43:53;1.50;;;1.30;;
35496;SDS011;21609;49.298;6.844;2023-12-28T11:46:22;1.55;;;1.17;;
35496;SDS011;21609;49.298;6.844;2023-12-28T11:48:48;1.30;;;1.20;;
35496;SDS011;21609;49.298;6.844;2023-12-28T11:51:14;2.42;;;1.40;;
35496;SDS011;21609;49.298;6.844;2023-12-28T11:53:39;1.55;;;1.20;;
35496;SDS011;21609;49.298;6.844;2023-12-28T11:56:07;1.27;;;1.15;;
35496;SDS011;21609;49.298;6.844;2023-12-28T11:58:34;1.42;;;1.33;;
35496;SDS011;21609;49.298;6.844;2023-12-28T12:01:01;1.75;;;1.55;;
35496;SDS011;21609;49.298;6.844;2023-12-28T12:03:27;1.40;;;1.30;;
35496;SDS011;21609;49.298;6.844;2023-12-28T12:05:54;2.55;;;1.17;;
35496;SDS011;21609;49.298;6.844;2023-12-28T12:08:22;1.17;;;1.05;;
35496;SDS011;21609;49.298;6.844;2023-12-28T12:10:47;1.10;;;1.00;;
35496;SDS011;21609;49.298;6.844;2023-12-28T12:13:13;1.25;;;1.00;;
35496;SDS011;21609;49.298;6.844;2023-12-28T12:15:39;1.45;;;1.17;;
35496;SDS011;21609;49.298;6.844;2023-12-28T12:18:05;1.25;;;1.00;;
35496;SDS011;21609;49.298;6.844;2023-12-28T12:20:31;1.65;;;1.23;;
35496;SDS011;21609;49.298;6.844;2023-12-28T12:22:57;1.55;;;1.40;;
35496;SDS011;21609;49.298;6.844;2023-12-28T12:25:24;1.33;;;1.23;;
35496;SDS011;21609;49.298;6.844;2023-12-28T12:27:49;1.42;;;1.33;;
35496;SDS011;21609;49.298;6.844;2023-12-28T12:30:15;1.27;;;1.17;;
35496;SDS011;21609;49.298;6.844;2023-12-28T12:32:41;4.43;;;1.13;;
35496;SDS011;21609;49.298;6.844;2023-12-28T12:35:09;1.67;;;1.38;;
35496;SDS011;21609;49.298;6.844;2023-12-28T12:37:36;2.35;;;1.30;;
35496;SDS011;21609;49.298;6.844;2023-12-28T12:40:02;3.72;;;1.10;;
35496;SDS011;21609;49.298;6.844;2023-12-28T12:42:30;1.83;;;1.10;;
35496;SDS011;21609;49.298;6.844;2023-12-28T12:44:57;2.97;;;1.38;;
35496;SDS011;21609;49.298;6.844;2023-12-28T12:47:22;1.23;;;1.00;;
35496;SDS011;21609;49.298;6.844;2023-12-28T12:49:48;3.30;;;1.85;;
35496;SDS011;21609;49.298;6.844;2023-12-28T12:52:16;1.38;;;1.23;;
35496;SDS011;21609;49.298;6.844;2023-12-28T12:54:42;1.50;;;1.23;;
35496;SDS011;21609;49.298;6.844;2023-12-28T12:57:07;2.25;;;1.10;;
35496;SDS011;21609;49.298;6.844;2023-12-28T12:59:33;1.70;;;1.10;;
35496;SDS011;21609;49.298;6.844;2023-12-28T13:02:00;1.20;;;1.00;;
35496;SDS011;21609;49.298;6.844;2023-12-28T13:04:26;1.77;;;1.27;;
35496;SDS011;21609;49.298;6.844;2023-12-28T13:06:52;2.35;;;1.00;;
35496;SDS011;21609;49.298;6.844;2023-12-28T13:09:17;2.88;;;1.27;;
35496;SDS011;21609;49.298;6.844;2023-12-28T13:11:43;1.30;;;1.20;;
35496;SDS011;21609;49.298;6.844;2023-12-28T13:14:09;2.67;;;1.30;;
35496;SDS011;21609;49.298;6.844;2023-12-28T13:16:34;1.85;;;1.13;;
35496;SDS011;21609;49.298;6.844;2023-12-28T13:19:00;1.42;;;1.02;;
35496;SDS011;21609;49.298;6.844;2023-12-28T13:21:25;0.93;;;0.90;;
35496;SDS011;21609;49.298;6.844;2023-12-28T13:23:51;1.63;;;1.08;;
35496;SDS011;21609;49.298;6.844;2023-12-28T13:26:16;1.95;;;1.25;;
35496;SDS011;21609;49.298;6.844;2023-12-28T13:28:42;1.40;;;0.90;;
35496;SDS011;21609;49.298;6.844;2023-12-28T13:31:08;0.90;;;0.90;;
35496;SDS011;21609;49.298;6.844;2023-12-28T13:33:33;1.40;;;1.25;;
35496;SDS011;21609;49.298;6.844;2023-12-28T13:35:59;1.30;;;1.02;;
35496;SDS011;21609;49.298;6.844;2023-12-28T13:38:24;2.55;;;1.05;;
35496;SDS011;21609;49.298;6.844;2023-12-28T13:40:50;2.67;;;1.55;;
35496;SDS011;21609;49.298;6.844;2023-12-28T13:43:16;1.95;;;1.17;;
35496;SDS011;21609;49.298;6.844;2023-12-28T13:45:42;1.63;;;1.33;;
35496;SDS011;21609;49.298;6.844;2023-12-28T13:48:07;1.33;;;0.98;;
35496;SDS011;21609;49.298;6.844;2023-12-28T13:50:34;1.50;;;1.30;;
35496;SDS011;21609;49.298;6.844;2023-12-28T13:52:59;1.10;;;1.00;;
35496;SDS011;21609;49.298;6.844;2023-12-28T13:55:25;1.30;;;0.90;;
35496;SDS011;21609;49.298;6.844;2023-12-28T13:57:50;0.90;;;0.90;;
35496;SDS011;21609;49.298;6.844;2023-12-28T14:00:16;4.03;;;1.17;;
35496;SDS011;21609;49.298;6.844;2023-12-28T14:02:42;1.55;;;1.00;;
35496;SDS011;21609;49.298;6.844;2023-12-28T14:05:08;1.13;;;1.02;;
35496;SDS011;21609;49.298;6.844;2023-12-28T14:07:34;1.52;;;1.00;;
35496;SDS011;21609;49.298;6.844;2023-12-28T14:09:59;1.38;;;1.08;;
35496;SDS011;21609;49.298;6.844;2023-12-28T14:12:25;0.80;;;0.80;;
35496;SDS011;21609;49.298;6.844;2023-12-28T14:14:50;1.88;;;1.17;;
35496;SDS011;21609;49.298;6.844;2023-12-28T14:17:16;1.48;;;1.25;;
35496;SDS011;21609;49.298;6.844;2023-12-28T14:19:44;1.33;;;1.20;;
35496;SDS011;21609;49.298;6.844;2023-12-28T14:22:11;1.35;;;1.25;;
35496;SDS011;21609;49.298;6.844;2023-12-28T14:24:37;1.48;;;0.93;;
35496;SDS011;21609;49.298;6.844;2023-12-28T14:27:03;1.20;;;1.10;;
35496;SDS011;21609;49.298;6.844;2023-12-28T14:29:29;0.90;;;0.90;;
35496;SDS011;21609;49.298;6.844;2023-12-28T14:31:55;1.45;;;1.35;;
35496;SDS011;21609;49.298;6.844;2023-12-28T14:34:21;1.60;;;1.10;;
35496;SDS011;21609;49.298;6.844;2023-12-28T14:36:46;1.02;;;0.93;;
35496;SDS011;21609;49.298;6.844;2023-12-28T14:39:15;1.50;;;1.13;;
35496;SDS011;21609;49.298;6.844;2023-12-28T14:41:43;1.10;;;1.00;;
35496;SDS011;21609;49.298;6.844;2023-12-28T14:44:09;0.70;;;0.70;;
35496;SDS011;21609;49.298;6.844;2023-12-28T14:46:34;0.93;;;0.90;;
35496;SDS011;21609;49.298;6.844;2023-12-28T14:49:00;1.77;;;1.10;;
35496;SDS011;21609;49.298;6.844;2023-12-28T14:51:27;1.02;;;0.93;;